createdAt,value
2018-05-11T00:01:56.913Z,14.20
2018-05-11T00:07:00.396Z,13.20
2018-05-11T00:12:02.967Z,13.30
2018-05-11T00:17:05.557Z,14.23
2018-05-11T00:27:22.328Z,12.00
2018-05-11T00:32:24.842Z,14.10
2018-05-11T00:37:28.178Z,15.23
2018-05-11T00:42:30.773Z,14.32
2018-05-11T00:47:34.099Z,13.98
2018-05-11T00:52:36.679Z,14.95
2018-05-11T00:57:39.942Z,13.85
2018-05-11T01:02:42.588Z,13.63
2018-05-11T01:07:45.198Z,13.20
2018-05-11T01:12:47.724Z,13.43
2018-05-11T01:17:50.245Z,14.98
2018-05-11T01:22:53.536Z,18.05
2018-05-11T01:27:56.061Z,14.15
2018-05-11T01:32:59.340Z,14.20
2018-05-11T01:38:01.872Z,15.32
2018-05-11T01:43:05.168Z,15.50
2018-05-11T01:48:07.739Z,15.63
2018-05-11T01:53:10.291Z,14.63
2018-05-11T01:58:17.492Z,16.65
2018-05-11T02:03:20.025Z,15.70
2018-05-11T02:08:24.348Z,18.85
2018-05-11T02:13:26.901Z,15.20
2018-05-11T02:18:29.482Z,15.48
2018-05-11T02:23:32.817Z,12.73
2018-05-11T02:28:35.362Z,13.83
2018-05-11T02:33:37.908Z,13.50
2018-05-11T02:38:45.031Z,15.27
2018-05-11T02:43:47.603Z,14.95
2018-05-11T02:48:50.137Z,16.45
2018-05-11T02:53:53.588Z,14.75
2018-05-11T02:59:01.716Z,15.40
2018-05-11T03:04:06.284Z,15.80
2018-05-11T03:09:08.834Z,16.67
2018-05-11T03:14:12.340Z,14.90
2018-05-11T03:19:14.861Z,16.27
2018-05-11T03:24:17.380Z,13.97
2018-05-11T03:29:20.055Z,14.43
2018-05-11T03:34:22.613Z,14.82
2018-05-11T03:39:26.073Z,14.90
2018-05-11T03:44:28.618Z,13.98
2018-05-11T03:49:31.158Z,14.55
2018-05-11T03:54:33.690Z,16.65
2018-05-11T03:59:36.255Z,15.27
2018-05-11T04:04:51.220Z,16.40
2018-05-11T04:09:57.341Z,14.87
2018-05-11T04:15:00.335Z,16.20
2018-05-11T04:20:06.390Z,15.82
2018-05-11T04:25:09.688Z,16.02
2018-05-11T04:30:13.043Z,17.75
2018-05-11T04:35:15.993Z,16.85
2018-05-11T04:40:20.573Z,17.50
2018-05-11T04:45:23.768Z,16.53
2018-05-11T04:50:26.291Z,14.35
2018-05-11T04:55:28.816Z,15.13
2018-05-11T05:00:31.340Z,15.82
2018-05-11T05:05:34.629Z,15.70
2018-05-11T05:10:37.242Z,15.90
2018-05-11T05:15:40.532Z,15.25
2018-05-11T05:20:43.076Z,17.80
2018-05-11T05:25:45.627Z,16.85
2018-05-11T05:30:48.987Z,19.23
2018-05-11T05:35:51.560Z,24.50
2018-05-11T05:40:57.491Z,24.23
2018-05-11T05:46:00.029Z,21.77
2018-05-11T05:51:02.640Z,20.90
2018-05-11T05:56:06.098Z,20.27
2018-05-11T06:01:09.850Z,20.90
2018-05-11T06:06:17.201Z,19.10
2018-05-11T06:11:19.767Z,18.45
2018-05-11T06:16:22.397Z,17.60
2018-05-11T06:21:25.616Z,18.48
2018-05-11T06:26:28.184Z,17.85
2018-05-11T06:31:33.698Z,15.80
2018-05-11T06:36:37.477Z,16.08
2018-05-11T06:41:41.833Z,14.40
2018-05-11T06:46:46.502Z,15.50
2018-05-11T06:51:49.075Z,14.07
2018-05-11T06:56:51.686Z,13.90
2018-05-11T07:01:54.338Z,15.40
2018-05-11T07:06:57.001Z,13.50
2018-05-11T07:12:00.331Z,12.95
2018-05-11T07:17:02.924Z,14.68
2018-05-11T07:22:05.508Z,12.67
2018-05-11T07:27:08.896Z,14.70
2018-05-11T07:32:11.453Z,17.00
2018-05-11T07:37:14.013Z,16.55
2018-05-11T07:42:18.628Z,16.80
2018-05-11T07:47:24.623Z,13.23
2018-05-11T07:52:28.869Z,15.10
2018-05-11T07:57:31.410Z,15.90
2018-05-11T08:02:33.982Z,16.73
2018-05-11T08:07:36.577Z,18.55
2018-05-11T08:12:41.000Z,17.92
2018-05-11T08:17:43.667Z,16.92
2018-05-11T08:22:48.377Z,18.73
2018-05-11T08:27:52.881Z,17.40
2018-05-11T08:32:55.342Z,20.75
2018-05-11T08:37:58.663Z,19.33
2018-05-11T08:48:14.750Z,20.90
2018-05-11T08:53:18.915Z,19.33
2018-05-11T08:58:21.516Z,19.17
2018-05-11T09:03:24.920Z,17.70
2018-05-11T09:08:27.646Z,19.23
2018-05-11T09:13:34.057Z,20.58
2018-05-11T09:18:37.732Z,19.70
2018-05-11T09:23:40.400Z,20.35
2018-05-11T09:28:44.123Z,18.92
2018-05-11T09:33:46.729Z,18.55
2018-05-11T09:38:49.339Z,17.00
2018-05-11T09:43:52.728Z,16.07
2018-05-11T09:48:55.318Z,18.20
2018-05-11T09:53:57.883Z,16.40
2018-05-11T09:59:00.479Z,14.57
2018-05-11T10:04:03.083Z,13.50
2018-05-11T10:09:05.707Z,14.05
2018-05-11T10:14:08.318Z,12.68
2018-05-11T10:19:10.991Z,12.95
2018-05-11T10:24:14.411Z,11.27
2018-05-11T10:29:16.983Z,11.02
2018-05-11T10:34:19.571Z,11.80
2018-05-11T10:39:22.258Z,11.25
2018-05-11T10:44:24.955Z,11.10
2018-05-11T10:49:30.311Z,9.18
2018-05-11T10:54:32.917Z,10.98
2018-05-11T10:59:36.402Z,11.80
2018-05-11T11:04:38.976Z,10.60
2018-05-11T11:09:42.211Z,9.60
2018-05-11T11:14:44.755Z,10.93
2018-05-11T11:19:47.370Z,11.00
2018-05-11T11:24:49.975Z,10.55
2018-05-11T11:29:54.552Z,8.18
2018-05-11T11:34:58.060Z,10.37
2018-05-11T11:40:00.749Z,8.40
2018-05-11T11:45:07.421Z,12.25
2018-05-11T11:50:10.856Z,9.10
2018-05-11T11:55:14.629Z,9.95
2018-05-11T12:00:18.124Z,11.50
2018-05-11T12:05:20.723Z,10.38
2018-05-11T12:10:23.265Z,10.60
2018-05-11T12:15:26.652Z,10.38
2018-05-11T12:20:29.961Z,10.88
2018-05-11T12:25:36.387Z,10.52
2018-05-11T12:30:39.698Z,10.10
2018-05-11T12:35:43.019Z,10.90
2018-05-11T12:40:45.615Z,11.38
2018-05-11T12:45:49.119Z,8.80
2018-05-11T12:50:51.765Z,11.70
2018-05-11T12:55:56.365Z,11.07
2018-05-11T13:00:59.869Z,11.05
2018-05-11T13:06:02.442Z,9.57
2018-05-11T13:11:05.958Z,8.20
2018-05-11T13:16:08.478Z,9.45
2018-05-11T13:21:11.104Z,8.60
2018-05-11T13:26:17.221Z,9.02
2018-05-11T13:31:19.777Z,8.48
2018-05-11T13:36:32.769Z,8.50
2018-05-11T13:41:35.248Z,9.40
2018-05-11T13:46:37.852Z,8.70
2018-05-11T13:51:40.378Z,9.20
2018-05-11T13:56:42.891Z,9.60
2018-05-11T14:01:45.444Z,8.98
2018-05-11T14:06:49.647Z,9.20
2018-05-11T14:11:52.926Z,7.25
2018-05-11T14:16:55.431Z,7.45
2018-05-11T14:21:58.703Z,7.50
2018-05-11T14:27:01.218Z,9.93
2018-05-11T14:32:03.845Z,8.10
2018-05-11T14:37:06.995Z,9.65
2018-05-11T14:42:09.524Z,7.57
2018-05-11T14:47:12.025Z,7.15
2018-05-11T14:52:15.333Z,8.43
2018-05-11T14:57:17.871Z,7.15
2018-05-11T15:02:20.374Z,7.40
2018-05-11T15:07:23.662Z,9.40
2018-05-11T15:12:26.166Z,7.93
2018-05-11T15:17:29.328Z,8.97
2018-05-11T15:22:32.800Z,7.10
2018-05-11T15:27:35.296Z,8.93
2018-05-11T15:32:37.846Z,6.65
2018-05-11T15:37:41.137Z,6.82
2018-05-11T15:42:43.766Z,6.90
2018-05-11T15:47:46.335Z,7.20
2018-05-11T15:52:49.605Z,6.95
2018-05-11T15:57:52.110Z,8.20
2018-05-11T16:02:54.637Z,6.30
2018-05-11T16:07:57.915Z,6.28
2018-05-11T16:13:00.428Z,6.93
2018-05-11T16:18:02.950Z,6.15
2018-05-11T16:23:05.468Z,7.20
2018-05-11T16:28:07.964Z,6.40
2018-05-11T16:33:10.875Z,5.30
2018-05-11T16:38:13.363Z,4.60
2018-05-11T16:43:15.854Z,5.97
2018-05-11T16:48:18.364Z,5.75
2018-05-11T16:53:20.907Z,4.50
2018-05-11T16:58:24.160Z,7.00
2018-05-11T17:03:27.462Z,4.50
2018-05-11T17:08:31.139Z,5.03
2018-05-11T17:13:34.988Z,6.18
2018-05-11T17:18:37.487Z,5.10
2018-05-11T17:23:40.000Z,4.97
2018-05-11T17:28:43.519Z,5.00
2018-05-11T17:33:46.958Z,5.60
2018-05-11T17:38:50.853Z,5.40
2018-05-11T17:43:54.353Z,6.85
2018-05-11T17:48:57.808Z,5.10
2018-05-11T17:54:00.295Z,6.18
2018-05-11T17:59:02.845Z,11.73
2018-05-11T18:04:05.356Z,8.57
2018-05-11T18:09:14.522Z,5.47
2018-05-11T18:14:17.011Z,5.18
2018-05-11T18:19:19.803Z,6.10
2018-05-11T18:24:22.784Z,6.43
2018-05-11T18:29:25.560Z,8.13
2018-05-11T18:34:28.050Z,7.40
2018-05-11T18:39:38.191Z,5.35
2018-05-11T18:44:40.633Z,6.00
2018-05-11T18:49:44.232Z,5.60
2018-05-11T18:54:47.485Z,6.25
2018-05-11T18:59:49.989Z,8.03
2018-05-11T19:04:54.183Z,8.77
2018-05-11T19:09:57.578Z,5.82
2018-05-11T19:15:06.158Z,42.40
2018-05-11T19:20:08.654Z,16.62
2018-05-11T19:25:11.229Z,8.40
2018-05-11T19:30:13.733Z,9.50
2018-05-11T19:35:16.234Z,9.50
2018-05-11T19:40:18.896Z,9.05
2018-05-11T19:45:21.488Z,12.00
2018-05-11T19:50:24.045Z,8.43
2018-05-11T19:55:26.566Z,7.87
2018-05-11T20:00:29.113Z,8.20
2018-05-11T20:05:31.631Z,10.98
2018-05-11T20:10:34.122Z,11.57
2018-05-11T20:15:41.807Z,9.60
2018-05-11T20:20:44.300Z,8.40
2018-05-11T20:25:46.864Z,8.80
2018-05-11T20:30:50.297Z,8.02
2018-05-11T20:35:52.857Z,7.78
2018-05-11T20:40:55.385Z,8.17
2018-05-11T20:46:00.573Z,8.65
2018-05-11T20:51:04.072Z,9.30
2018-05-11T20:56:07.579Z,8.75
2018-05-11T21:01:10.127Z,8.07
2018-05-11T21:06:29.823Z,7.50
2018-05-11T21:11:32.622Z,8.90
2018-05-11T21:16:35.261Z,8.77
2018-05-11T21:21:40.517Z,8.60
2018-05-11T21:26:45.042Z,9.68
2018-05-11T21:31:48.328Z,14.85
2018-05-11T21:36:53.659Z,16.20
2018-05-11T21:42:02.933Z,9.18
2018-05-11T21:47:06.364Z,9.68
2018-05-11T21:52:08.946Z,10.17
2018-05-11T21:57:14.657Z,10.10
2018-05-11T22:02:17.245Z,9.40
2018-05-11T22:07:19.996Z,10.02
2018-05-11T22:12:28.658Z,8.55
2018-05-11T22:17:53.030Z,10.13
2018-05-11T22:22:59.431Z,9.95
2018-05-11T22:28:03.010Z,10.68
2018-05-11T22:33:11.302Z,9.95
2018-05-11T22:38:21.493Z,11.80
2018-05-11T22:43:34.246Z,9.60
2018-05-11T22:48:38.845Z,11.10
2018-05-11T22:53:41.487Z,10.85
2018-05-11T22:58:44.109Z,10.50
2018-05-11T23:03:48.662Z,11.00
2018-05-11T23:08:52.069Z,11.80
2018-05-11T23:13:54.617Z,10.70
2018-05-11T23:18:57.170Z,10.50
2018-05-11T23:23:59.779Z,11.80
2018-05-11T23:29:13.455Z,11.53
2018-05-11T23:34:15.984Z,13.37
2018-05-11T23:39:18.717Z,13.93
2018-05-11T23:44:22.059Z,12.83
2018-05-11T23:49:25.009Z,12.60
2018-05-11T23:54:28.397Z,12.90
2018-05-11T23:59:32.818Z,13.13
